Madeline — WDF2406 — position and weather

sailwx.info

Track history (hours):
 
Tides and Currents Weather Stations Pressure Air Temp Water Temp Dewpoint Dewpoint Depression Visibility Wind Speed Wind Dir Waves Ship Positions

Madeline

More information available from US FCC via Universal Licensing System and Coast Guard Vessel Documentation Center.

Last reported at 2014-Sep-19 15:23 UTC. Time now 2014-Sep-19 15:54 UTC.
Position N 29°47' W 095°05'.

Length 30 m; draft 8 m.

Type: Tug. MMSI: 367350460.

Date/timePositionNaut miles runAvg speedWind from/ knotsBaromVisibWave heightAir tempDewpointWater temp
2014-Sep-19 15:23N 29°47' W 095°05'0 0.0
2014-Sep-19 03:32N 29°47' W 095°05'0 0.0
2014-Sep-19 02:31N 29°47' W 095°05'0 0.0
2014-Sep-19 00:29N 29°47' W 095°05'0 0.0
2014-Sep-18 23:28N 29°47' W 095°05'0 0.0
2014-Sep-18 22:21N 29°47' W 095°05'1 0.2
2014-Sep-18 19:20N 29°47' W 095°04'1 0.7
2014-Sep-18 18:32N 29°47' W 095°05'1 0.5
2014-Sep-18 17:26N 29°47' W 095°05'0 0.0
2014-Sep-18 16:10N 29°47' W 095°05'0 0.0
2014-Sep-18 15:32N 29°47' W 095°05'0 0.0
2014-Sep-18 14:29N 29°47' W 095°05'0 0.0
2014-Sep-18 13:29N 29°47' W 095°05'0 0.0
2014-Sep-18 12:19N 29°47' W 095°05'2 2.4
2014-Sep-18 11:33N 29°45' W 095°06'0 0.0
2014-Sep-18 10:21N 29°45' W 095°06'2 2.3
2014-Sep-18 09:28N 29°47' W 095°05'0 0.2
2014-Sep-18 08:28N 29°47' W 095°05'0 0.0
2014-Sep-18 07:32N 29°47' W 095°05'0 0.0
2014-Sep-18 06:28N 29°47' W 095°05'0 0.0
2014-Sep-18 05:31N 29°47' W 095°05'0 0.0
2014-Sep-18 04:32N 29°47' W 095°05'0 0.0
2014-Sep-18 02:05N 29°47' W 095°05'0 0.0
2014-Sep-17 21:21N 29°47' W 095°05'0 0.0
2014-Sep-17 16:08N 29°47' W 095°05'0 0.0
2014-Sep-17 15:12N 29°47' W 095°05'  
2014-Sep-12 21:24N 29°23' W 094°49'8 9.6
2014-Sep-12 20:33N 29°30' W 094°53'9 8.7
2014-Sep-12 19:33N 29°38' W 094°58'8 8.0
2014-Sep-12 18:32N 29°44' W 095°03'3 3.4
2014-Sep-12 17:33N 29°47' W 095°05'0 0.0
2014-Sep-12 11:32N 29°47' W 095°05'0 0.0
2014-Sep-12 08:24N 29°47' W 095°05'0 0.0
2014-Sep-12 07:31N 29°47' W 095°05'0 0.0
2014-Sep-12 06:22N 29°47' W 095°05'0 0.0
2014-Sep-12 05:33N 29°47' W 095°05'3 0.6
2014-Sep-12 01:33N 29°45' W 095°04'1 0.1
2014-Sep-11 11:30N 29°44' W 095°03'0 0.0
2014-Sep-11 09:20N 29°44' W 095°03'0 0.0
2014-Sep-11 08:21N 29°44' W 095°03'0 0.0
2014-Sep-11 07:09N 29°44' W 095°03'0 0.0
2014-Sep-11 06:31N 29°44' W 095°03'0 0.0
2014-Sep-11 05:33N 29°44' W 095°03'0 0.0
2014-Sep-11 04:08N 29°44' W 095°03'4 0.1
2014-Sep-09 22:03N 29°47' W 095°05'  
Track history (hours):
 
Tides and Currents Weather Stations Pressure Air Temp Water Temp Dewpoint Dewpoint Depression Visibility Wind Speed Wind Dir Waves Ship Positions

Madeline

More information available from US FCC via Universal Licensing System and Coast Guard Vessel Documentation Center.

Last reported at 2014-Sep-19 15:23 UTC. Time now 2014-Sep-19 15:54 UTC.
Position N 29°47' W 095°05'.

Length 30 m; draft 8 m.

Type: Tug. MMSI: 367350460.

Date/timePositionNaut miles runAvg speedWind from/ knotsBaromVisibWave heightAir tempDewpointWater temp
2014-Sep-19 15:23N 29°47' W 095°05'0 0.0
2014-Sep-19 03:32N 29°47' W 095°05'0 0.0
2014-Sep-19 02:31N 29°47' W 095°05'0 0.0
2014-Sep-19 00:29N 29°47' W 095°05'0 0.0
2014-Sep-18 23:28N 29°47' W 095°05'0 0.0
2014-Sep-18 22:21N 29°47' W 095°05'1 0.2
2014-Sep-18 19:20N 29°47' W 095°04'1 0.7
2014-Sep-18 18:32N 29°47' W 095°05'1 0.5
2014-Sep-18 17:26N 29°47' W 095°05'0 0.0
2014-Sep-18 16:10N 29°47' W 095°05'0 0.0
2014-Sep-18 15:32N 29°47' W 095°05'0 0.0
2014-Sep-18 14:29N 29°47' W 095°05'0 0.0
2014-Sep-18 13:29N 29°47' W 095°05'0 0.0
2014-Sep-18 12:19N 29°47' W 095°05'2 2.4
2014-Sep-18 11:33N 29°45' W 095°06'0 0.0
2014-Sep-18 10:21N 29°45' W 095°06'2 2.3
2014-Sep-18 09:28N 29°47' W 095°05'0 0.2
2014-Sep-18 08:28N 29°47' W 095°05'0 0.0
2014-Sep-18 07:32N 29°47' W 095°05'0 0.0
2014-Sep-18 06:28N 29°47' W 095°05'0 0.0
2014-Sep-18 05:31N 29°47' W 095°05'0 0.0
2014-Sep-18 04:32N 29°47' W 095°05'0 0.0
2014-Sep-18 02:05N 29°47' W 095°05'0 0.0
2014-Sep-17 21:21N 29°47' W 095°05'0 0.0
2014-Sep-17 16:08N 29°47' W 095°05'0 0.0
2014-Sep-17 15:12N 29°47' W 095°05'  
2014-Sep-12 21:24N 29°23' W 094°49'8 9.6
2014-Sep-12 20:33N 29°30' W 094°53'9 8.7
2014-Sep-12 19:33N 29°38' W 094°58'8 8.0
2014-Sep-12 18:32N 29°44' W 095°03'3 3.4
2014-Sep-12 17:33N 29°47' W 095°05'0 0.0
2014-Sep-12 11:32N 29°47' W 095°05'0 0.0
2014-Sep-12 08:24N 29°47' W 095°05'0 0.0
2014-Sep-12 07:31N 29°47' W 095°05'0 0.0
2014-Sep-12 06:22N 29°47' W 095°05'0 0.0
2014-Sep-12 05:33N 29°47' W 095°05'3 0.6
2014-Sep-12 01:33N 29°45' W 095°04'1 0.1
2014-Sep-11 11:30N 29°44' W 095°03'0 0.0
2014-Sep-11 09:20N 29°44' W 095°03'0 0.0
2014-Sep-11 08:21N 29°44' W 095°03'0 0.0
2014-Sep-11 07:09N 29°44' W 095°03'0 0.0
2014-Sep-11 06:31N 29°44' W 095°03'0 0.0
2014-Sep-11 05:33N 29°44' W 095°03'0 0.0
2014-Sep-11 04:08N 29°44' W 095°03'4 0.1
2014-Sep-09 22:03N 29°47' W 095°05'  

Dump ship's entire track history